.
WxDataArchive / Data Records for 2006-03-19
2006-03-18 March 2006 2006-03-20

Data Records for Sunday, 19 March 2006

Time	Temp	Chill	HIndex	Humid	Dewpt	 Wind 	HiWind	WindDir	Rain 	Barom 
-----	----	-----	------	-----	-----	------	------	-------	-----	----- 
00:00	26.6	26.6	26.6	58	13.8	0	3	292	0.00	30.284 
00:05	26.6	26.6	26.6	57	13.4	1	3	270	0.00	30.284 
00:10	26.6	26.6	26.6	57	13.4	0	2	315	0.00	30.284 
00:15	26.4	26.4	26.4	57	13.3	0	2	315	0.00	30.283 
00:20	26.4	26.4	26.4	57	13.3	0	2	315	0.00	30.283 
00:25	26.4	26.4	26.4	57	13.3	0	3	270	0.00	30.283 
00:30	26.4	26.4	26.4	57	13.3	0	2	292	0.00	30.283 
00:35	26.4	26.4	26.4	57	13.3	0	2	292	0.00	30.283 
00:40	26.3	26.3	26.3	57	13.2	0	3	338	0.00	30.283 
00:45	26.3	26.3	26.3	57	13.2	0	1	338	0.00	30.276 
00:50	26.1	26.1	26.1	58	13.4	1	3	270	0.00	30.276 
00:55	26.0	26.0	26.0	58	13.3	0	3	270	0.00	30.276 
01:00	26.0	26.0	26.0	58	13.3	1	3	270	0.00	30.273 
01:05	26.0	26.0	26.0	58	13.3	1	3	270	0.00	30.273 
01:10	25.8	25.8	25.8	58	13.1	0	2	270	0.00	30.273 
01:15	25.8	25.8	25.8	59	13.5	0	2	292	0.00	30.275 
01:20	25.7	25.7	25.7	59	13.4	0	2	292	0.00	30.275 
01:25	25.6	25.6	25.6	60	13.7	0	1	292	0.00	30.275 
01:30	25.4	25.4	25.4	60	13.5	0	1	292	0.00	30.272 
01:35	25.3	25.3	25.3	61	13.8	0	1	292	0.00	30.272 
01:40	25.1	25.1	25.1	61	13.6	0	0	---	0.00	30.272 
01:45	25.0	25.0	25.0	62	13.8	0	1	292	0.00	30.270 
01:50	24.8	24.8	24.8	62	13.7	0	1	292	0.00	30.270 
01:55	24.8	24.8	24.8	63	14.0	0	2	292	0.00	30.270 
02:00	24.7	24.7	24.7	63	13.9	0	1	292	0.00	30.277 
02:05	24.5	24.5	24.5	63	13.7	0	1	292	0.00	30.277 
02:10	24.5	24.5	24.5	64	14.1	0	2	270	0.00	30.277 
02:15	24.5	24.5	24.5	64	14.1	0	1	270	0.00	30.277 
02:20	24.4	24.4	24.4	64	14.0	0	0	---	0.00	30.277 
02:25	24.2	24.2	24.2	65	14.2	0	0	---	0.00	30.277 
02:30	24.2	24.2	24.2	65	14.2	0	1	270	0.00	30.276 
02:35	24.1	24.1	24.1	65	14.1	0	0	---	0.00	30.276 
02:40	24.1	24.1	24.1	66	14.4	0	1	270	0.00	30.276 
02:45	24.1	24.1	24.1	66	14.4	0	1	270	0.00	30.278 
02:50	24.1	24.1	24.1	67	14.8	0	1	270	0.00	30.278 
02:55	24.1	24.1	24.1	67	14.8	0	1	270	0.00	30.278 
03:00	24.1	24.1	24.1	68	15.1	0	1	270	0.00	30.271 
03:05	23.9	23.9	23.9	68	14.9	0	1	270	0.00	30.271 
03:10	23.9	23.9	23.9	68	14.9	0	1	270	0.00	30.271 
03:15	23.8	23.8	23.8	69	15.1	0	1	270	0.00	30.268 
03:20	23.8	23.8	23.8	69	15.1	0	0	---	0.00	30.268 
03:25	23.6	23.6	23.6	69	14.9	0	0	---	0.00	30.268 
03:30	23.5	23.5	23.5	70	15.2	0	0	---	0.00	30.267 
03:35	23.5	23.5	23.5	70	15.2	0	1	270	0.00	30.267 
03:40	23.5	23.5	23.5	70	15.2	0	1	270	0.00	30.267 
03:45	23.5	23.5	23.5	71	15.5	0	1	270	0.00	30.262 
03:50	23.3	23.3	23.3	71	15.3	0	1	270	0.00	30.262 
03:55	23.2	23.2	23.2	71	15.2	0	0	---	0.00	30.262 
04:00	23.0	23.0	23.0	71	15.0	0	0	---	0.00	30.258 
04:05	23.0	23.0	23.0	72	15.3	0	0	---	0.00	30.258 
04:10	22.9	22.9	22.9	72	15.2	0	0	---	0.00	30.258 
04:15	22.5	22.5	22.5	73	15.2	0	1	270	0.00	30.265 
04:20	22.4	22.4	22.4	73	15.1	0	1	270	0.00	30.265 
04:25	22.2	22.2	22.2	73	14.9	0	0	---	0.00	30.265 
04:30	22.1	22.1	22.1	74	15.1	0	0	---	0.00	30.266 
04:35	21.9	21.9	21.9	74	14.9	1	2	270	0.00	30.266 
04:40	21.9	21.9	21.9	74	14.9	0	2	270	0.00	30.266 
04:45	21.9	21.9	21.9	75	15.2	0	1	270	0.00	30.268 
04:50	21.9	21.9	21.9	75	15.2	1	3	270	0.00	30.268 
04:55	21.9	21.9	21.9	75	15.2	0	2	270	0.00	30.268 
05:00	21.9	21.9	21.9	75	15.2	0	1	270	0.00	30.272 
05:05	21.9	21.9	21.9	75	15.2	0	1	270	0.00	30.272 
05:10	21.8	21.8	21.8	76	15.4	0	1	270	0.00	30.272 
05:15	21.9	21.9	21.9	76	15.5	0	2	270	0.00	30.273 
05:20	21.9	21.9	21.9	76	15.5	1	2	270	0.00	30.273 
05:25	22.1	22.1	22.1	77	16.0	0	1	248	0.00	30.273 
05:30	22.2	22.2	22.2	77	16.1	0	1	248	0.00	30.276 
05:35	22.2	22.2	22.2	77	16.1	0	2	248	0.00	30.276 
05:40	22.2	22.2	22.2	77	16.1	0	1	248	0.00	30.276 
05:45	22.2	22.2	22.2	77	16.1	0	2	248	0.00	30.274 
05:50	22.2	22.2	22.2	77	16.1	0	1	248	0.00	30.274 
05:55	22.2	22.2	22.2	77	16.1	0	1	248	0.00	30.274 
06:00	22.2	22.2	22.2	77	16.1	0	1	248	0.00	30.276 
06:05	22.2	22.2	22.2	77	16.1	0	1	248	0.00	30.276 
06:10	22.2	22.2	22.2	77	16.1	0	1	248	0.00	30.276 
06:15	22.4	22.4	22.4	77	16.3	0	2	248	0.00	30.286 
06:20	22.4	22.4	22.4	77	16.3	0	1	248	0.00	30.286 
06:25	22.4	22.4	22.4	77	16.3	0	2	248	0.00	30.286 
06:30	22.4	22.4	22.4	77	16.3	0	1	248	0.00	30.289 
06:35	22.5	22.5	22.5	77	16.4	0	1	248	0.00	30.289 
06:40	22.4	22.4	22.4	77	16.3	0	1	248	0.00	30.289 
06:45	22.4	22.4	22.4	77	16.3	0	1	248	0.00	30.291 
06:50	22.4	22.4	22.4	78	16.6	1	2	248	0.00	30.291 
06:55	22.5	22.5	22.5	77	16.4	0	1	248	0.00	30.291 
07:00	22.5	22.5	22.5	77	16.4	0	1	248	0.00	30.293 
07:05	22.7	22.7	22.7	77	16.6	0	1	248	0.00	30.293 
07:10	23.0	23.0	23.0	77	16.9	0	1	248	0.00	30.293 
07:15	23.3	23.3	23.3	77	17.2	0	1	248	0.00	30.305 
07:20	23.6	23.6	23.6	76	17.2	0	1	248	0.00	30.305 
07:25	24.1	24.1	24.1	76	17.7	0	1	248	0.00	30.305 
07:30	24.5	24.5	24.5	75	17.7	1	2	248	0.00	30.305 
07:35	25.0	25.0	25.0	74	17.9	1	3	248	0.00	30.305 
07:40	25.3	25.3	25.3	73	17.9	1	3	248	0.00	30.305 
07:45	25.6	25.6	25.6	73	18.2	1	2	292	0.00	30.304 
07:50	26.0	26.0	26.0	73	18.6	1	2	270	0.00	30.304 
07:55	26.3	26.3	26.3	72	18.5	1	3	270	0.00	30.304 
08:00	26.7	26.7	26.7	72	18.9	1	2	248	0.00	30.304 
08:05	27.0	27.0	27.0	70	18.5	1	4	248	0.00	30.304 
08:10	27.5	27.5	27.5	69	18.7	1	5	338	0.00	30.304 
08:15	27.8	27.8	27.8	68	18.6	1	3	338	0.00	30.307 
08:20	28.1	28.1	28.1	67	18.6	1	3	270	0.00	30.307 
08:25	28.4	28.4	28.4	65	18.2	2	5	315	0.00	30.307 
08:30	28.8	28.8	28.8	65	18.5	1	4	315	0.00	30.309 
08:35	29.0	29.0	29.0	64	18.4	3	6	315	0.00	30.309 
08:40	29.3	29.3	29.3	64	18.7	2	5	338	0.00	30.309 
08:45	29.7	29.7	29.7	63	18.7	2	5	0	0.00	30.305 
08:50	30.1	30.1	30.1	63	19.0	1	4	292	0.00	30.305 
08:55	30.7	30.7	30.7	60	18.5	2	5	270	0.00	30.305 
09:00	30.9	30.9	30.9	59	18.3	2	4	292	0.00	30.302 
09:05	31.2	31.2	31.2	60	19.0	2	4	270	0.00	30.302 
09:10	31.5	31.5	31.5	60	19.2	2	4	292	0.00	30.302 
09:15	31.9	31.9	31.9	60	19.6	2	9	270	0.00	30.299 
09:20	32.2	32.2	32.2	58	19.1	2	7	338	0.00	30.299 
09:25	32.4	32.4	32.4	58	19.3	2	5	0	0.00	30.299 
09:30	32.7	32.7	32.7	57	19.2	2	7	270	0.00	30.290 
09:35	32.7	32.7	32.7	57	19.2	3	6	292	0.00	30.290 
09:40	32.8	32.8	32.8	58	19.7	2	6	338	0.00	30.290 
09:45	33.2	33.2	33.2	56	19.2	2	6	270	0.00	30.287 
09:50	33.5	33.5	33.5	56	19.5	2	6	338	0.00	30.287 
09:55	33.8	33.8	33.8	58	20.6	2	6	270	0.00	30.287 
10:00	34.1	34.1	34.1	57	20.5	2	6	270	0.00	30.281 
10:05	34.3	34.3	34.3	55	19.8	2	10	0	0.00	30.281 
10:10	34.6	34.6	34.6	54	19.7	3	6	270	0.00	30.281 
10:15	34.4	34.4	34.4	54	19.5	3	7	292	0.00	30.281 
10:20	34.6	34.6	34.6	54	19.7	3	6	270	0.00	30.281 
10:25	35.0	35.0	35.0	53	19.6	2	5	338	0.00	30.281 
10:30	35.5	35.5	35.5	54	20.5	3	7	338	0.00	30.272 
10:35	35.9	35.9	35.9	53	20.5	3	6	270	0.00	30.272 
10:40	36.5	36.5	36.5	51	20.1	2	6	270	0.00	30.272 
10:45	36.8	36.8	36.8	53	21.3	2	4	248	0.00	30.276 
10:50	36.8	36.8	36.8	52	20.8	3	7	270	0.00	30.276 
10:55	37.0	37.0	37.0	52	21.0	2	4	270	0.00	30.276 
11:00	37.2	37.2	37.2	51	20.8	3	7	270	0.00	30.277 
11:05	37.8	37.8	37.8	49	20.4	2	6	292	0.00	30.277 
11:10	37.9	37.9	37.9	50	20.9	3	7	315	0.00	30.277 
11:15	37.9	37.9	37.9	49	20.5	2	6	338	0.00	30.268 
11:20	38.0	38.0	38.0	50	21.0	3	7	270	0.00	30.268 
11:25	38.0	38.0	38.0	52	22.0	3	6	315	0.00	30.268 
11:30	38.5	38.5	38.5	51	22.0	3	5	270	0.00	30.265 
11:35	38.8	38.8	38.8	46	19.8	3	6	270	0.00	30.265 
11:40	39.2	39.2	39.2	43	18.6	2	6	270	0.00	30.265 
11:45	39.8	39.8	39.8	46	20.7	2	5	292	0.00	30.256 
11:50	39.9	39.9	39.9	44	19.8	3	5	270	0.00	30.256 
11:55	40.1	40.1	40.1	46	21.0	3	7	270	0.00	30.256 
12:00	39.9	39.9	39.9	42	18.7	3	5	338	0.00	30.250 
12:05	40.5	40.5	40.5	44	20.3	2	4	338	0.00	30.250 
12:10	40.6	40.6	40.6	43	19.9	3	7	270	0.00	30.250 
12:15	40.6	40.6	40.6	44	20.4	3	9	248	0.00	30.244 
12:20	40.8	40.8	40.8	43	20.1	2	6	0	0.00	30.244 
12:25	40.6	40.6	40.6	43	19.9	3	8	338	0.00	30.244 
12:30	41.1	41.1	41.1	42	19.8	2	7	315	0.00	30.234 
12:35	41.2	41.2	41.2	40	18.7	3	9	270	0.00	30.234 
12:40	41.5	41.5	41.5	43	20.7	3	10	292	0.00	30.234 
12:45	41.3	41.3	41.3	41	19.4	3	7	292	0.00	30.224 
12:50	41.6	41.6	41.6	41	19.7	3	7	0	0.00	30.224 
12:55	41.9	41.9	41.9	38	18.2	3	6	270	0.00	30.224 
13:00	42.1	42.1	42.1	42	20.7	3	5	270	0.00	30.232 
13:05	42.3	42.3	42.3	38	18.5	3	9	0	0.00	30.232 
13:10	42.9	42.9	42.9	39	19.7	2	7	270	0.00	30.232 
13:15	43.2	43.2	43.2	36	18.1	3	7	292	0.00	30.226 
13:20	43.5	43.5	43.5	36	18.3	2	6	270	0.00	30.226 
13:25	43.6	43.6	43.6	39	20.3	2	4	270	0.00	30.226 
13:30	43.9	43.9	43.9	40	21.2	2	6	338	0.00	30.225 
13:35	44.2	44.2	44.2	34	17.6	3	7	270	0.00	30.225 
13:40	43.8	43.8	43.8	36	18.6	3	7	338	0.00	30.225 
13:45	43.9	43.9	43.9	39	20.6	3	7	315	0.00	30.216 
13:50	43.8	43.8	43.8	34	17.3	2	6	315	0.00	30.216 
13:55	44.2	44.2	44.2	35	18.3	2	7	292	0.00	30.216 
14:00	44.6	44.6	44.6	34	18.0	3	6	270	0.00	30.211 
14:05	45.1	45.1	45.1	35	19.1	2	6	292	0.00	30.211 
14:10	45.5	45.5	45.5	35	19.5	3	6	248	0.00	30.211 
14:15	45.8	45.8	45.8	35	19.7	2	5	270	0.00	30.209 
14:20	46.1	46.1	46.1	32	17.9	3	8	315	0.00	30.209 
14:25	45.5	45.5	45.5	35	19.5	3	6	338	0.00	30.209 
14:30	45.7	45.7	45.7	36	20.3	3	6	270	0.00	30.200 
14:35	45.7	45.7	45.7	36	20.3	3	10	315	0.00	30.200 
14:40	46.1	46.1	46.1	34	19.3	2	6	270	0.00	30.200 
14:45	46.0	46.0	46.0	33	18.5	2	5	338	0.00	30.196 
14:50	46.4	46.4	46.4	35	20.3	2	5	292	0.00	30.196 
14:55	46.2	46.2	46.2	35	20.1	2	6	292	0.00	30.196 
15:00	46.8	46.8	46.8	33	19.2	3	5	270	0.00	30.192 
15:05	47.0	47.0	47.0	33	19.4	2	7	315	0.00	30.192 
15:10	46.5	46.5	46.5	32	18.3	3	7	315	0.00	30.192 
15:15	46.5	46.5	46.5	35	20.3	3	5	338	0.00	30.198 
15:20	46.5	46.5	46.5	33	19.0	3	6	0	0.00	30.198 
15:25	47.0	47.0	47.0	36	21.4	2	4	338	0.00	30.198 
15:30	47.4	47.4	47.4	33	19.8	2	5	270	0.00	30.187 
15:35	47.6	47.6	47.6	32	19.2	3	7	270	0.00	30.187 
15:40	47.7	47.7	47.7	35	21.4	2	6	338	0.00	30.187 
15:45	47.7	47.7	47.7	34	20.7	2	4	0	0.00	30.184 
15:50	48.0	48.0	48.0	35	21.7	1	3	292	0.00	30.184 
15:55	48.2	48.2	48.2	31	19.0	2	5	315	0.00	30.184 
16:00	47.9	47.9	47.9	32	19.5	3	6	315	0.00	30.182 
16:05	47.9	47.9	47.9	32	19.5	3	9	292	0.00	30.182 
16:10	47.6	47.6	47.6	31	18.5	2	5	315	0.00	30.182 
16:15	47.3	47.3	47.3	32	19.0	2	6	315	0.00	30.184 
16:20	47.1	47.1	47.1	33	19.5	2	6	315	0.00	30.184 
16:25	47.3	47.3	47.3	31	18.2	2	5	270	0.00	30.184 
16:30	47.1	47.1	47.1	32	18.8	2	4	338	0.00	30.183 
16:35	47.3	47.3	47.3	33	19.7	2	4	338	0.00	30.183 
16:40	47.3	47.3	47.3	33	19.7	3	6	338	0.00	30.183 
16:45	47.3	47.3	47.3	35	21.0	2	5	338	0.00	30.183 
16:50	47.3	47.3	47.3	32	19.0	2	6	292	0.00	30.183 
16:55	47.3	47.3	47.3	34	20.4	2	7	292	0.00	30.183 
17:00	46.8	46.8	46.8	34	19.9	2	5	315	0.00	30.183 
17:05	46.7	46.7	46.7	35	20.5	1	4	338	0.00	30.183 
17:10	46.5	46.5	46.5	34	19.7	2	5	0	0.00	30.183 
17:15	46.7	46.7	46.7	36	21.2	1	5	270	0.00	30.184 
17:20	46.7	46.7	46.7	37	21.8	2	6	338	0.00	30.184 
17:25	46.4	46.4	46.4	36	20.9	2	5	270	0.00	30.184 
17:30	46.1	46.1	46.1	36	20.6	2	9	292	0.00	30.188 
17:35	45.8	45.8	45.8	38	21.7	2	5	338	0.00	30.188 
17:40	45.7	45.7	45.7	38	21.6	2	5	315	0.00	30.188 
17:45	45.5	45.5	45.5	39	22.0	2	6	248	0.00	30.184 
17:50	45.2	45.2	45.2	40	22.3	2	4	292	0.00	30.184 
17:55	44.8	44.8	44.8	39	21.4	2	4	315	0.00	30.184 
18:00	44.5	44.5	44.5	40	21.7	2	7	338	0.00	30.188 
18:05	44.2	44.2	44.2	41	22.0	2	4	338	0.00	30.188 
18:10	44.1	44.1	44.1	41	21.9	1	3	315	0.00	30.188 
18:15	43.9	43.9	43.9	42	22.3	1	3	292	0.00	30.187 
18:20	43.6	43.6	43.6	43	22.6	2	4	315	0.00	30.187 
18:25	43.3	43.3	43.3	44	22.9	1	5	270	0.00	30.187 
18:30	42.9	42.9	42.9	45	23.0	2	7	0	0.00	30.187 
18:35	42.6	42.6	42.6	46	23.3	1	3	292	0.00	30.187 
18:40	42.2	42.2	42.2	46	22.9	2	4	315	0.00	30.187 
18:45	41.9	41.9	41.9	47	23.2	1	4	292	0.00	30.195 
18:50	41.5	41.5	41.5	49	23.8	1	3	270	0.00	30.195 
18:55	41.2	41.2	41.2	50	24.0	1	5	270	0.00	30.195 
19:00	41.1	41.1	41.1	50	23.9	2	5	315	0.00	30.200 
19:05	40.6	40.6	40.6	51	23.9	1	4	315	0.00	30.200 
19:10	40.3	40.3	40.3	51	23.6	0	2	292	0.00	30.200 
19:15	40.1	40.1	40.1	52	23.9	1	2	270	0.00	30.196 
19:20	39.8	39.8	39.8	52	23.6	1	3	270	0.00	30.196 
19:25	39.6	39.6	39.6	53	23.9	1	4	270	0.00	30.196 
19:30	39.5	39.5	39.5	53	23.8	1	4	315	0.00	30.196 
19:35	39.3	39.3	39.3	54	24.1	1	3	315	0.00	30.196 
19:40	39.1	39.1	39.1	54	23.9	1	4	0	0.00	30.196 
19:45	38.9	38.9	38.9	55	24.1	1	3	292	0.00	30.193 
19:50	38.6	38.6	38.6	56	24.3	1	3	270	0.00	30.193 
19:55	38.5	38.5	38.5	56	24.2	1	5	315	0.00	30.193 
20:00	38.3	38.3	38.3	56	24.0	1	3	248	0.00	30.194 
20:05	38.0	38.0	38.0	57	24.1	1	2	270	0.00	30.194 
20:10	37.8	37.8	37.8	58	24.4	0	2	270	0.00	30.194 
20:15	37.5	37.5	37.5	58	24.1	1	3	270	0.00	30.195 
20:20	37.2	37.2	37.2	58	23.8	1	3	315	0.00	30.195 
20:25	37.0	37.0	37.0	59	24.0	1	2	292	0.00	30.195 
20:30	36.9	36.9	36.9	59	23.9	0	1	292	0.00	30.195 
20:35	36.6	36.6	36.6	60	24.0	0	3	315	0.00	30.195 
20:40	36.3	36.3	36.3	61	24.2	0	3	270	0.00	30.195 
20:45	36.2	36.2	36.2	61	24.1	1	4	270	0.00	30.206 
20:50	36.0	36.0	36.0	62	24.3	1	3	315	0.00	30.206 
20:55	36.0	36.0	36.0	62	24.3	1	3	292	0.00	30.206 
21:00	35.8	35.8	35.8	62	24.1	1	3	292	0.00	30.209 
21:05	35.6	35.6	35.6	62	23.9	1	3	315	0.00	30.209 
21:10	35.5	35.5	35.5	63	24.2	1	2	292	0.00	30.209 
21:15	35.3	35.3	35.3	63	24.0	1	3	248	0.00	30.218 
21:20	35.0	35.0	35.0	63	23.7	0	1	225	0.00	30.218 
21:25	34.7	34.7	34.7	64	23.8	0	2	225	0.00	30.218 
21:30	34.4	34.4	34.4	65	23.9	0	2	225	0.00	30.230 
21:35	34.3	34.3	34.3	65	23.8	1	4	248	0.00	30.230 
21:40	34.1	34.1	34.1	66	23.9	1	2	315	0.00	30.230 
21:45	34.1	34.1	34.1	66	23.9	1	2	315	0.00	30.232 
21:50	33.8	33.8	33.8	66	23.7	1	4	315	0.00	30.232 
21:55	33.7	33.7	33.7	67	23.9	0	2	270	0.00	30.232 
22:00	33.4	33.4	33.4	67	23.6	1	3	315	0.00	30.244 
22:05	33.2	33.2	33.2	67	23.4	1	3	270	0.00	30.244 
22:10	33.1	33.1	33.1	67	23.4	1	4	270	0.00	30.244 
22:15	32.8	32.8	32.8	67	23.1	0	2	248	0.00	30.241 
22:20	32.7	32.7	32.7	68	23.3	1	2	248	0.00	30.241 
22:25	32.5	32.5	32.5	68	23.1	1	3	270	0.00	30.241 
22:30	32.2	32.2	32.2	68	22.8	0	2	270	0.00	30.245 
22:35	31.9	31.9	31.9	69	22.9	0	1	292	0.00	30.245 
22:40	31.8	31.8	31.8	69	22.8	0	1	292	0.00	30.245 
22:45	31.5	31.5	31.5	69	22.5	0	1	292	0.00	30.243 
22:50	31.3	31.3	31.3	70	22.7	0	1	292	0.00	30.243 
22:55	31.0	31.0	31.0	70	22.4	0	2	292	0.00	30.243 
23:00	30.9	30.9	30.9	71	22.6	0	2	292	0.00	30.234 
23:05	30.7	30.7	30.7	71	22.4	0	2	292	0.00	30.234 
23:10	30.6	30.6	30.6	71	22.3	0	1	292	0.00	30.234 
23:15	30.3	30.3	30.3	71	22.0	0	1	292	0.00	30.229 
23:20	30.1	30.1	30.1	71	21.9	0	2	292	0.00	30.229 
23:25	30.0	30.0	30.0	71	21.8	0	2	292	0.00	30.229 
23:30	29.8	29.8	29.8	71	21.6	0	1	270	0.00	30.222 
23:35	29.7	29.7	29.7	72	21.8	0	2	270	0.00	30.222 
23:40	29.5	29.5	29.5	72	21.6	0	1	270	0.00	30.222 
23:45	29.4	29.4	29.4	72	21.5	0	2	270	0.00	30.215 
23:50	29.4	29.4	29.4	71	21.2	0	2	270	0.00	30.215 
23:55	29.3	29.3	29.3	71	21.1	0	2	270	0.00	30.215 

CoCoRaHS
IN-AL-39
A2 Web Hosting
Creative Commons License
GoDaddy
Look for:

loaded 2017-12-12 16:42:14 • last modified 2010-11-18 10:43:29
Privacy PolicyDisclaimer
• wx.awcolley.com is powered by PmWiki v.2002016 •
• all content (unless otherwise noted) © 2017 A W Colley